Time;durP1;ratioP1;P1;durP2;ratioP2;P2;SDS_P1;SDS_P2;PMS_P1;PMS_P2;Temp;Humidity;BMP_temperature;BMP_pressure;BME280_temperature;BME280_humidity;BME280_pressure;Samples;Min_cycle;Max_cycle;Signal;HPM_P1;HPM_P2
2021/05/29 00:00:50;;;;;;;5.45;2.10;;;;;;;;;;5071955;28;20048;-67
2021/05/29 00:03:17;;;;;;;3.03;2.10;;;;;;;;;;5071749;28;20051;-67
2021/05/29 00:05:43;;;;;;;5.25;2.53;;;;;;;;;;5071519;28;20049;-67
2021/05/29 00:08:10;;;;;;;2.95;2.10;;;;;;;;;;5072142;28;20045;-67
2021/05/29 00:10:39;;;;;;;3.55;2.47;;;;;;;;;;5071707;28;20048;-67
2021/05/29 00:13:06;;;;;;;9.15;2.60;;;;;;;;;;5072167;28;20652;-67
2021/05/29 00:15:33;;;;;;;3.15;2.17;;;;;;;;;;5071690;28;20055;-67
2021/05/29 00:17:59;;;;;;;4.03;2.58;;;;;;;;;;5071878;28;20416;-67
2021/05/29 00:20:25;;;;;;;4.55;3.00;;;;;;;;;;5072260;28;20045;-67
2021/05/29 00:22:51;;;;;;;6.75;2.60;;;;;;;;;;5071636;28;20051;-67
2021/05/29 00:25:17;;;;;;;4.07;2.58;;;;;;;;;;5071539;28;20044;-67
2021/05/29 00:27:44;;;;;;;3.60;2.22;;;;;;;;;;5071896;28;20052;-67
2021/05/29 00:30:12;;;;;;;4.45;2.83;;;;;;;;;;5071761;28;20052;-67
2021/05/29 00:32:38;;;;;;;3.58;2.88;;;;;;;;;;5071872;28;20740;-67
2021/05/29 00:35:06;;;;;;;3.75;2.17;;;;;;;;;;5071178;28;20055;-67
2021/05/29 00:37:32;;;;;;;3.55;2.50;;;;;;;;;;5073613;28;20090;-67
2021/05/29 00:39:58;;;;;;;4.68;2.67;;;;;;;;;;5079731;28;20134;-67
2021/05/29 00:42:24;;;;;;;4.07;2.33;;;;;;;;;;5088700;28;20127;-67
2021/05/29 00:44:52;;;;;;;4.22;2.53;;;;;;;;;;5091534;28;20055;-67
2021/05/29 00:47:20;;;;;;;4.00;2.72;;;;;;;;;;5083076;28;20045;-67
2021/05/29 00:49:46;;;;;;;4.57;2.45;;;;;;;;;;5071768;28;20072;-67
2021/05/29 00:52:14;;;;;;;5.18;2.75;;;;;;;;;;5071646;28;20048;-67
2021/05/29 00:54:40;;;;;;;3.80;2.60;;;;;;;;;;5071564;28;20561;-67
2021/05/29 00:57:07;;;;;;;4.82;3.10;;;;;;;;;;5071720;28;20048;-67
2021/05/29 00:59:33;;;;;;;3.35;2.45;;;;;;;;;;5071684;28;20057;-67
2021/05/29 01:01:59;;;;;;;5.32;2.33;;;;;;;;;;5071719;28;20651;-67
2021/05/29 01:04:26;;;;;;;4.18;2.38;;;;;;;;;;5073974;28;20408;-67
2021/05/29 01:06:51;;;;;;;4.93;2.80;;;;;;;;;;5074672;28;20058;-67
2021/05/29 01:09:17;;;;;;;4.65;2.53;;;;;;;;;;5075032;28;20052;-67
2021/05/29 01:11:43;;;;;;;3.63;2.28;;;;;;;;;;5074216;28;20040;-67
2021/05/29 01:14:09;;;;;;;3.72;2.53;;;;;;;;;;5066651;28;20164;-67
2021/05/29 01:16:45;;;;;;;2.95;2.00;;;;;;;;;;5054863;28;20049;-67
2021/05/29 01:19:13;;;;;;;3.55;2.53;;;;;;;;;;5067320;28;20491;-67
2021/05/29 01:21:40;;;;;;;3.85;2.85;;;;;;;;;;5074994;28;20041;-67
2021/05/29 01:24:07;;;;;;;4.70;2.33;;;;;;;;;;5075049;28;20052;-67
2021/05/29 01:26:33;;;;;;;4.72;2.92;;;;;;;;;;5073901;28;20048;-67
2021/05/29 01:28:59;;;;;;;3.88;2.40;;;;;;;;;;5074799;28;20430;-67
2021/05/29 01:31:27;;;;;;;5.15;2.67;;;;;;;;;;5074739;28;20049;-67
2021/05/29 01:33:56;;;;;;;4.80;2.30;;;;;;;;;;5074470;28;20092;-67
2021/05/29 01:36:22;;;;;;;4.88;2.63;;;;;;;;;;5073636;28;20044;-67
2021/05/29 01:38:48;;;;;;;4.45;2.20;;;;;;;;;;5066930;28;20132;-67
2021/05/29 01:41:16;;;;;;;4.30;2.28;;;;;;;;;;5064674;28;20140;-67
2021/05/29 01:43:45;;;;;;;5.57;2.67;;;;;;;;;;5078068;28;20052;-67
2021/05/29 01:46:12;;;;;;;3.97;2.20;;;;;;;;;;5090075;28;20480;-67
2021/05/29 01:48:41;;;;;;;4.45;2.40;;;;;;;;;;5094914;28;20050;-67
2021/05/29 01:51:07;;;;;;;3.60;2.30;;;;;;;;;;5094526;28;20044;-67
2021/05/29 01:53:33;;;;;;;4.55;2.47;;;;;;;;;;5094749;28;20146;-67
2021/05/29 01:56:00;;;;;;;4.60;2.95;;;;;;;;;;5094485;28;20680;-67
2021/05/29 01:58:27;;;;;;;4.05;2.30;;;;;;;;;;5081924;28;20051;-67
2021/05/29 02:00:53;;;;;;;4.57;2.65;;;;;;;;;;5073827;28;20052;-67
2021/05/29 02:03:19;;;;;;;4.00;2.70;;;;;;;;;;5074157;28;20102;-67
2021/05/29 02:05:45;;;;;;;3.25;2.60;;;;;;;;;;5073960;28;20048;-67
2021/05/29 02:08:13;;;;;;;3.30;2.28;;;;;;;;;;5073877;28;20052;-67
2021/05/29 02:10:40;;;;;;;4.03;3.08;;;;;;;;;;5073769;28;20048;-67
2021/05/29 02:13:09;;;;;;;3.35;2.45;;;;;;;;;;5072670;28;20056;-67
2021/05/29 02:15:37;;;;;;;4.53;2.20;;;;;;;;;;5072787;28;20084;-67
2021/05/29 02:18:05;;;;;;;3.80;2.42;;;;;;;;;;5073818;28;20392;-67
2021/05/29 02:20:40;;;;;;;3.95;2.30;;;;;;;;;;5073561;28;20072;-67
2021/05/29 02:23:07;;;;;;;5.13;2.65;;;;;;;;;;5073755;28;20532;-67
2021/05/29 02:25:33;;;;;;;34.67;5.07;;;;;;;;;;5073412;28;20056;-67
2021/05/29 02:27:59;;;;;;;5.28;2.92;;;;;;;;;;5081647;28;20071;-67
2021/05/29 02:30:26;;;;;;;3.55;2.40;;;;;;;;;;5094160;28;20101;-67
2021/05/29 02:32:53;;;;;;;4.47;2.70;;;;;;;;;;5093992;28;20048;-67
2021/05/29 02:35:19;;;;;;;3.65;2.30;;;;;;;;;;5093981;28;20066;-67
2021/05/29 02:37:45;;;;;;;4.28;2.20;;;;;;;;;;5084961;28;20051;-67
2021/05/29 02:40:12;;;;;;;3.13;2.17;;;;;;;;;;5064793;28;20045;-67
2021/05/29 02:42:38;;;;;;;4.90;2.42;;;;;;;;;;5070503;28;20470;-66
2021/05/29 02:45:05;;;;;;;3.10;2.47;;;;;;;;;;5073440;28;20051;-66
2021/05/29 02:47:31;;;;;;;5.15;2.33;;;;;;;;;;5073530;28;20051;-66
2021/05/29 02:49:59;;;;;;;6.63;2.90;;;;;;;;;;5072480;28;20127;-67
2021/05/29 02:52:25;;;;;;;4.50;3.00;;;;;;;;;;5062329;28;20053;-66
2021/05/29 02:54:51;;;;;;;4.35;2.45;;;;;;;;;;5052738;28;20060;-67
2021/05/29 02:57:17;;;;;;;6.20;2.95;;;;;;;;;;5055407;28;20064;-66
2021/05/29 02:59:43;;;;;;;5.03;2.72;;;;;;;;;;5072803;28;20044;-66
2021/05/29 03:02:10;;;;;;;5.57;2.70;;;;;;;;;;5072813;28;20049;-67
2021/05/29 03:04:36;;;;;;;4.20;2.63;;;;;;;;;;5072602;28;20048;-67
2021/05/29 03:07:04;;;;;;;5.57;3.08;;;;;;;;;;5073125;28;20074;-67
2021/05/29 03:09:30;;;;;;;4.40;2.80;;;;;;;;;;5072871;28;20053;-67
2021/05/29 03:11:56;;;;;;;7.05;3.17;;;;;;;;;;5082054;28;20032;-67
2021/05/29 03:14:22;;;;;;;5.22;3.10;;;;;;;;;;5093190;28;20399;-67
2021/05/29 03:16:48;;;;;;;5.30;2.80;;;;;;;;;;5092830;28;20048;-67
2021/05/29 03:19:15;;;;;;;6.38;2.90;;;;;;;;;;5077272;28;20052;-67
2021/05/29 03:21:41;;;;;;;10.60;4.40;;;;;;;;;;5072238;28;20052;-67
2021/05/29 03:24:08;;;;;;;5.57;3.97;;;;;;;;;;5072226;28;20098;-67
2021/05/29 03:26:34;;;;;;;4.50;3.25;;;;;;;;;;5072595;28;20067;-67
2021/05/29 03:29:01;;;;;;;3.60;2.90;;;;;;;;;;5072954;28;20473;-67
2021/05/29 03:31:27;;;;;;;4.97;3.83;;;;;;;;;;5072544;28;20468;-67
2021/05/29 03:33:53;;;;;;;4.03;3.10;;;;;;;;;;5072479;28;20086;-67
2021/05/29 03:36:19;;;;;;;5.30;3.35;;;;;;;;;;5072251;28;20048;-67
2021/05/29 03:38:45;;;;;;;5.07;2.95;;;;;;;;;;5072164;28;20513;-67
2021/05/29 03:41:12;;;;;;;8.40;4.03;;;;;;;;;;5070531;28;20052;-67
2021/05/29 03:43:38;;;;;;;6.85;3.17;;;;;;;;;;5072261;28;20055;-67
2021/05/29 03:46:05;;;;;;;5.38;2.80;;;;;;;;;;5072102;28;20060;-67
2021/05/29 03:48:31;;;;;;;4.07;2.92;;;;;;;;;;5071939;28;20048;-67
2021/05/29 03:50:57;;;;;;;5.78;3.22;;;;;;;;;;5072563;28;20044;-67
2021/05/29 03:53:23;;;;;;;6.45;3.42;;;;;;;;;;5072162;28;20052;-67
2021/05/29 03:55:49;;;;;;;5.40;3.13;;;;;;;;;;5071565;28;20127;-67
2021/05/29 03:58:16;;;;;;;4.35;3.15;;;;;;;;;;5072207;28;20135;-67
2021/05/29 04:00:42;;;;;;;5.38;3.80;;;;;;;;;;5072001;28;20461;-67
2021/05/29 04:03:08;;;;;;;6.57;4.80;;;;;;;;;;5072246;28;20060;-67
2021/05/29 04:05:35;;;;;;;7.63;4.95;;;;;;;;;;5092323;28;20554;-67
2021/05/29 04:08:01;;;;;;;7.18;4.35;;;;;;;;;;5092294;28;20422;-67
2021/05/29 04:10:29;;;;;;;8.68;5.05;;;;;;;;;;5092411;28;20487;-67
2021/05/29 04:12:56;;;;;;;11.02;6.22;;;;;;;;;;5092163;28;20102;-67
2021/05/29 04:15:23;;;;;;;10.05;5.93;;;;;;;;;;5092047;28;20070;-67
2021/05/29 04:17:49;;;;;;;7.53;4.63;;;;;;;;;;5086667;28;20393;-67
2021/05/29 04:20:18;;;;;;;7.53;4.25;;;;;;;;;;5071816;28;20048;-67
2021/05/29 04:22:44;;;;;;;8.32;3.88;;;;;;;;;;5072026;28;20392;-67
2021/05/29 04:25:14;;;;;;;5.18;3.70;;;;;;;;;;5071888;28;20044;-67
2021/05/29 04:27:40;;;;;;;8.98;3.97;;;;;;;;;;5073583;28;20048;-67
2021/05/29 04:30:08;;;;;;;11.88;4.38;;;;;;;;;;5076491;28;20048;-67
2021/05/29 04:32:35;;;;;;;5.55;3.53;;;;;;;;;;5081009;28;20049;-67
2021/05/29 04:35:01;;;;;;;6.70;3.50;;;;;;;;;;5079195;28;20040;-68
2021/05/29 04:37:27;;;;;;;4.65;3.53;;;;;;;;;;5080961;28;20044;-67
2021/05/29 04:39:53;;;;;;;5.25;3.20;;;;;;;;;;5084049;28;20060;-67
2021/05/29 04:42:19;;;;;;;6.50;2.92;;;;;;;;;;5082511;28;20064;-67
2021/05/29 04:44:46;;;;;;;6.13;3.88;;;;;;;;;;5082259;28;20048;-68
2021/05/29 04:47:12;;;;;;;4.60;3.30;;;;;;;;;;5085275;28;20553;-68
2021/05/29 04:49:39;;;;;;;5.68;4.00;;;;;;;;;;5084944;28;20040;-68
2021/05/29 04:52:05;;;;;;;9.10;3.95;;;;;;;;;;5086020;28;20044;-68
2021/05/29 04:54:32;;;;;;;6.25;3.15;;;;;;;;;;5077925;28;20045;-67
2021/05/29 04:56:58;;;;;;;5.63;3.38;;;;;;;;;;5080883;28;20084;-68
2021/05/29 04:59:24;;;;;;;7.65;4.15;;;;;;;;;;5074934;28;20056;-67
2021/05/29 05:01:50;;;;;;;10.70;7.53;;;;;;;;;;5074982;28;20040;-68
2021/05/29 05:04:16;;;;;;;17.85;9.98;;;;;;;;;;5074815;28;20050;-68
2021/05/29 05:06:43;;;;;;;9.80;7.55;;;;;;;;;;5077869;28;20049;-67
2021/05/29 05:09:09;;;;;;;13.10;6.60;;;;;;;;;;5077658;28;20051;-67
2021/05/29 05:11:35;;;;;;;8.93;5.50;;;;;;;;;;5079129;28;20040;-67
2021/05/29 05:14:02;;;;;;;7.68;5.55;;;;;;;;;;5081822;28;20044;-68
2021/05/29 05:16:28;;;;;;;9.57;5.20;;;;;;;;;;5075066;28;20124;-68
2021/05/29 05:18:54;;;;;;;5.75;4.53;;;;;;;;;;5079313;28;20067;-67
2021/05/29 05:21:21;;;;;;;5.07;4.07;;;;;;;;;;5074974;28;20091;-67
2021/05/29 05:23:50;;;;;;;6.38;4.57;;;;;;;;;;5074877;28;20056;-67
2021/05/29 05:26:17;;;;;;;6.07;4.18;;;;;;;;;;5079436;28;20072;-67
2021/05/29 05:28:43;;;;;;;7.78;4.72;;;;;;;;;;5074681;28;20048;-67
2021/05/29 05:31:08;;;;;;;6.45;4.25;;;;;;;;;;5079885;28;20545;-67
2021/05/29 05:33:39;;;;;;;10.20;4.53;;;;;;;;;;5081575;28;20090;-68
2021/05/29 05:36:07;;;;;;;6.60;4.00;;;;;;;;;;5084961;28;20401;-66
2021/05/29 05:38:33;;;;;;;4.88;3.40;;;;;;;;;;5071134;28;20048;-65
2021/05/29 05:41:00;;;;;;;5.95;3.65;;;;;;;;;;5072557;28;20044;-65
2021/05/29 05:43:26;;;;;;;5.00;3.70;;;;;;;;;;5073815;28;20056;-67
2021/05/29 05:45:52;;;;;;;6.53;4.25;;;;;;;;;;5074305;28;20468;-65
2021/05/29 05:48:18;;;;;;;4.97;3.50;;;;;;;;;;5074122;28;20392;-67
2021/05/29 05:50:53;;;;;;;5.18;3.53;;;;;;;;;;5073235;28;20060;-67
2021/05/29 05:53:19;;;;;;;5.60;3.58;;;;;;;;;;5074512;28;20503;-68
2021/05/29 05:55:45;;;;;;;5.07;3.30;;;;;;;;;;5074579;28;20060;-67
2021/05/29 05:58:11;;;;;;;7.93;3.78;;;;;;;;;;5083954;28;20492;-67
2021/05/29 06:00:38;;;;;;;4.97;3.55;;;;;;;;;;5082923;28;20519;-67
2021/05/29 06:03:04;;;;;;;4.32;3.33;;;;;;;;;;5074561;28;20142;-67
2021/05/29 06:05:31;;;;;;;4.18;2.97;;;;;;;;;;5074199;28;20053;-68
2021/05/29 06:07:57;;;;;;;6.25;2.80;;;;;;;;;;5074430;28;20907;-67
2021/05/29 06:10:24;;;;;;;4.55;2.92;;;;;;;;;;5074560;28;20135;-67
2021/05/29 06:12:51;;;;;;;5.40;2.33;;;;;;;;;;5074025;28;20051;-66
2021/05/29 06:20:48;;;;;;;5.47;2.45;;;;;;;;;;5072775;28;20111;-65
2021/05/29 06:23:14;;;;;;;5.43;2.90;;;;;;;;;;5074180;28;20052;-65
2021/05/29 06:25:40;;;;;;;4.07;2.72;;;;;;;;;;5074060;28;20202;-65
2021/05/29 06:28:06;;;;;;;4.10;2.50;;;;;;;;;;5085496;28;20044;-65
2021/05/29 06:30:33;;;;;;;4.10;1.98;;;;;;;;;;5094134;28;20046;-65
2021/05/29 06:32:59;;;;;;;4.22;2.53;;;;;;;;;;5093833;28;20138;-65
2021/05/29 06:35:25;;;;;;;3.85;2.53;;;;;;;;;;5093865;28;20052;-65
2021/05/29 06:37:52;;;;;;;4.18;1.98;;;;;;;;;;5085965;28;20087;-65
2021/05/29 06:40:18;;;;;;;3.70;2.45;;;;;;;;;;5073623;28;20048;-65
2021/05/29 06:42:44;;;;;;;2.80;1.95;;;;;;;;;;5071973;28;20063;-65
2021/05/29 06:45:10;;;;;;;3.75;2.25;;;;;;;;;;5064928;28;20053;-65
2021/05/29 06:47:38;;;;;;;4.80;2.15;;;;;;;;;;5073361;28;20098;-67
2021/05/29 06:50:06;;;;;;;3.58;2.45;;;;;;;;;;5073273;28;20049;-65
2021/05/29 06:52:33;;;;;;;4.60;2.30;;;;;;;;;;5073291;28;20078;-65
2021/05/29 06:55:06;;;;;;;3.70;2.08;;;;;;;;;;5073200;28;20521;-66
2021/05/29 07:00:17;;;;;;;3.85;2.08;;;;;;;;;;5073903;28;20055;-66
2021/05/29 07:02:44;;;;;;;4.22;2.15;;;;;;;;;;5069938;28;20059;-66
2021/05/29 07:05:11;;;;;;;7.00;2.63;;;;;;;;;;5072843;28;20079;-67
2021/05/29 07:07:37;;;;;;;4.40;2.33;;;;;;;;;;5072824;28;20059;-67
2021/05/29 07:10:06;;;;;;;4.97;2.20;;;;;;;;;;5072752;28;20055;-66
2021/05/29 07:12:32;;;;;;;6.40;2.47;;;;;;;;;;5072989;28;20048;-66
2021/05/29 07:14:58;;;;;;;4.18;2.60;;;;;;;;;;5072676;28;20044;-66
2021/05/29 07:17:30;;;;;;;5.30;2.17;;;;;;;;;;5073257;28;20197;-67
2021/05/29 07:19:57;;;;;;;5.35;2.35;;;;;;;;;;5072775;28;20088;-67
2021/05/29 07:22:23;;;;;;;4.25;2.30;;;;;;;;;;5072531;28;20048;-67
2021/05/29 07:24:49;;;;;;;4.55;2.30;;;;;;;;;;5072576;28;20044;-67
2021/05/29 07:27:15;;;;;;;4.18;2.88;;;;;;;;;;5067103;28;20094;-67
2021/05/29 07:29:41;;;;;;;3.45;2.50;;;;;;;;;;5072357;28;20477;-65
2021/05/29 07:32:08;;;;;;;5.03;2.30;;;;;;;;;;5072766;28;20044;-67
2021/05/29 07:34:34;;;;;;;3.38;2.10;;;;;;;;;;5072773;28;20052;-67
2021/05/29 07:37:01;;;;;;;3.70;2.17;;;;;;;;;;5072389;28;20048;-67
2021/05/29 07:39:27;;;;;;;3.85;2.20;;;;;;;;;;5081054;28;20047;-67
2021/05/29 07:41:53;;;;;;;3.50;2.60;;;;;;;;;;5092691;28;20457;-67
2021/05/29 07:44:19;;;;;;;3.53;2.20;;;;;;;;;;5069042;28;20547;-67
2021/05/29 07:46:46;;;;;;;4.68;2.28;;;;;;;;;;5075427;28;20159;-65
2021/05/29 07:49:12;;;;;;;3.30;2.00;;;;;;;;;;5052584;28;20135;-64
2021/05/29 07:51:38;;;;;;;5.07;2.35;;;;;;;;;;5052705;28;20113;-64
2021/05/29 07:54:06;;;;;;;4.45;2.20;;;;;;;;;;5077753;28;20080;-65
2021/05/29 07:56:32;;;;;;;2.75;1.98;;;;;;;;;;5076927;28;20056;-66
2021/05/29 07:59:00;;;;;;;4.65;2.40;;;;;;;;;;5071211;28;20076;-66
2021/05/29 08:01:26;;;;;;;3.42;2.00;;;;;;;;;;5072248;28;20071;-66
2021/05/29 08:03:52;;;;;;;4.60;2.25;;;;;;;;;;5075085;28;20094;-66
2021/05/29 08:06:20;;;;;;;5.70;2.15;;;;;;;;;;5077991;28;20053;-66
2021/05/29 08:08:47;;;;;;;6.60;2.10;;;;;;;;;;5089966;28;20131;-66
2021/05/29 08:11:18;;;;;;;6.80;3.00;;;;;;;;;;5075079;28;20468;-67
2021/05/29 08:13:44;;;;;;;4.65;2.47;;;;;;;;;;5075734;28;20473;-67
2021/05/29 08:16:12;;;;;;;5.15;2.45;;;;;;;;;;5058843;28;20140;-66
2021/05/29 08:18:38;;;;;;;5.95;2.55;;;;;;;;;;5071865;28;20153;-66
2021/05/29 08:21:05;;;;;;;3.78;2.15;;;;;;;;;;5071564;28;20477;-66
2021/05/29 08:23:31;;;;;;;3.30;2.55;;;;;;;;;;5071809;28;20404;-66
2021/05/29 08:25:57;;;;;;;5.30;2.25;;;;;;;;;;5071984;28;20135;-67
2021/05/29 08:28:24;;;;;;;5.82;2.53;;;;;;;;;;5072025;28;20057;-66
2021/05/29 08:30:50;;;;;;;5.03;2.33;;;;;;;;;;5072058;28;20044;-66
2021/05/29 08:33:16;;;;;;;3.08;1.70;;;;;;;;;;5087360;28;20468;-65
2021/05/29 08:35:42;;;;;;;3.00;2.17;;;;;;;;;;5085712;28;20132;-67
2021/05/29 08:38:08;;;;;;;3.03;2.35;;;;;;;;;;5082557;28;20052;-67
2021/05/29 08:40:34;;;;;;;3.08;2.00;;;;;;;;;;5090969;28;20131;-67
2021/05/29 08:43:00;;;;;;;5.25;2.33;;;;;;;;;;5089862;28;20055;-66
2021/05/29 08:45:27;;;;;;;7.50;2.95;;;;;;;;;;5069876;28;20067;-67
2021/05/29 08:47:53;;;;;;;5.80;2.58;;;;;;;;;;5064448;28;20046;-65
2021/05/29 08:50:19;;;;;;;5.55;2.00;;;;;;;;;;5050835;28;20076;-66
2021/05/29 08:52:45;;;;;;;5.43;2.00;;;;;;;;;;5071167;28;20054;-65
2021/05/29 08:55:14;;;;;;;5.57;2.20;;;;;;;;;;5071594;28;20048;-68
2021/05/29 08:57:41;;;;;;;19.15;2.95;;;;;;;;;;5071631;28;20052;-66
2021/05/29 09:00:10;;;;;;;12.02;2.55;;;;;;;;;;5071650;28;20058;-66
2021/05/29 09:02:59;;;;;;;4.70;1.90;;;;;;;;;;5070799;28;20534;-66
2021/05/29 09:05:35;;;;;;;5.40;1.73;;;;;;;;;;5075133;28;20411;-66
2021/05/29 09:08:03;;;;;;;3.33;1.70;;;;;;;;;;5072801;28;20045;-67
2021/05/29 09:10:29;;;;;;;2.35;1.52;;;;;;;;;;5070509;28;20048;-66
2021/05/29 09:13:07;;;;;;;4.20;2.13;;;;;;;;;;5076594;28;20060;-66
2021/05/29 09:15:48;;;;;;;3.63;2.00;;;;;;;;;;5070510;28;20067;-67
2021/05/29 09:18:34;;;;;;;4.80;1.88;;;;;;;;;;5070496;28;20052;-65
2021/05/29 09:21:23;;;;;;;3.28;1.40;;;;;;;;;;5071027;28;20036;-67
2021/05/29 09:23:51;;;;;;;4.10;1.95;;;;;;;;;;5069826;28;20044;-66
2021/05/29 09:26:20;;;;;;;3.20;1.80;;;;;;;;;;5074779;28;20553;-66
2021/05/29 09:28:46;;;;;;;2.78;2.00;;;;;;;;;;5074612;28;20040;-65
2021/05/29 09:31:14;;;;;;;7.50;1.65;;;;;;;;;;5074761;28;20521;-65
2021/05/29 09:33:41;;;;;;;5.40;2.15;;;;;;;;;;5079593;28;20043;-66
2021/05/29 09:36:10;;;;;;;4.97;2.38;;;;;;;;;;5079950;28;20048;-66
2021/05/29 09:38:38;;;;;;;3.60;1.98;;;;;;;;;;5077552;28;20052;-65
2021/05/29 09:41:07;;;;;;;4.03;2.05;;;;;;;;;;5080160;28;20053;-65
2021/05/29 09:43:51;;;;;;;6.40;2.15;;;;;;;;;;5073897;28;20036;-65
2021/05/29 09:46:17;;;;;;;2.92;1.83;;;;;;;;;;5072500;28;20052;-65
2021/05/29 09:48:53;;;;;;;2.80;1.83;;;;;;;;;;5074214;28;20136;-66
2021/05/29 09:51:20;;;;;;;;;;;;;;;;;;5074838;28;20044;-66
2021/05/29 09:53:46;;;;;;;;;;;;;;;;;;5079650;28;19920;-65
2021/05/29 09:56:23;;;;;;;;;;;;;;;;;;5079822;28;19924;-65
2021/05/29 09:58:52;;;;;;;;;;;;;;;;;;5075867;28;19927;-65
2021/05/29 10:01:37;;;;;;;;;;;;;;;;;;5077262;28;20010;-66
2021/05/29 10:04:04;;;;;;;;;;;;;;;;;;5071866;28;20015;-66
2021/05/29 10:06:30;;;;;;;;;;;;;;;;;;5074996;28;19920;-66
2021/05/29 10:08:56;;;;;;;;;;;;;;;;;;5074457;28;19981;-66
2021/05/29 10:11:21;;;;;;;;;;;;;;;;;;5074073;28;19924;-65
2021/05/29 10:13:47;;;;;;;;;;;;;;;;;;5074133;28;19920;-66
2021/05/29 10:16:13;;;;;;;;;;;;;;;;;;5073963;28;19920;-66
2021/05/29 10:18:39;;;;;;;;;;;;;;;;;;5073300;28;20011;-67
2021/05/29 10:21:06;;;;;;;;;;;;;;;;;;5073344;28;19920;-66
2021/05/29 10:23:32;;;;;;;;;;;;;;;;;;5082522;28;19926;-66
2021/05/29 10:25:58;;;;;;;;;;;;;;;;;;5074684;28;20349;-65
2021/05/29 10:28:24;;;;;;;;;;;;;;;;;;5077993;28;20159;-66
2021/05/29 10:30:50;;;;;;;;;;;;;;;;;;5075670;28;19921;-67
2021/05/29 10:33:17;;;;;;;;;;;;;;;;;;5072789;28;19927;-67
2021/05/29 10:35:43;;;;;;;;;;;;;;;;;;5078359;28;19924;-67
2021/05/29 10:38:10;;;;;;;;;;;;;;;;;;5071541;28;20389;-67
2021/05/29 10:40:38;;;;;;;;;;;;;;;;;;5070606;28;20467;-67
2021/05/29 10:43:09;;;;;;;;;;;;;;;;;;5073720;28;19924;-67
2021/05/29 10:45:36;;;;;;;;;;;;;;;;;;5069390;28;19924;-67
2021/05/29 10:48:06;;;;;;;;;;;;;;;;;;5069533;28;20617;-67
2021/05/29 10:50:54;;;;;;;;;;;;;;;;;;5071411;28;20363;-67
2021/05/29 10:53:34;;;;;;;;;;;;;;;;;;5071426;28;19927;-67
2021/05/29 10:56:15;;;;;;;;;;;;;;;;;;5072768;28;19973;-67
2021/05/29 10:58:58;;;;;;;;;;;;;;;;;;5073164;28;20283;-67
2021/05/29 11:01:28;;;;;;;;;;;;;;;;;;5074238;28;19977;-66
2021/05/29 11:04:09;;;;;;;;;;;;;;;;;;5081133;28;20001;-66
2021/05/29 11:06:35;;;;;;;;;;;;;;;;;;5083069;28;19924;-66
2021/05/29 11:09:02;;;;;;;;;;;;;;;;;;5081253;28;19952;-66
2021/05/29 11:12:02;;;;;;;;;;;;;;;;;;5079379;28;19924;-66
2021/05/29 11:14:28;;;;;;;;;;;;;;;;;;5036670;28;19941;-66
2021/05/29 11:17:12;;;;;;;;;;;;;;;;;;5043037;28;19921;-67
2021/05/29 11:19:39;;;;;;;;;;;;;;;;;;5061018;28;19963;-66
2021/05/29 11:22:06;;;;;;;;;;;;;;;;;;5083398;28;19924;-65
2021/05/29 11:24:33;;;;;;;;;;;;;;;;;;5082330;28;19920;-66
2021/05/29 11:26:59;;;;;;;;;;;;;;;;;;5081207;28;19920;-66
2021/05/29 11:29:25;;;;;;;;;;;;;;;;;;5081750;28;20007;-66
2021/05/29 11:31:53;;;;;;;;;;;;;;;;;;5081057;28;20287;-66
2021/05/29 11:34:18;;;;;;;;;;;;;;;;;;5086603;28;19920;-65
2021/05/29 11:36:44;;;;;;;;;;;;;;;;;;5081589;28;19924;-66
2021/05/29 11:39:11;;;;;;;;;;;;;;;;;;5082520;28;19934;-66
2021/05/29 11:41:38;;;;;;;;;;;;;;;;;;5083530;28;19928;-67
2021/05/29 11:44:06;;;;;;;;;;;;;;;;;;5082079;28;20337;-66
2021/05/29 11:46:31;;;;;;;;;;;;;;;;;;5079380;28;19920;-65
2021/05/29 11:48:58;;;;;;;;;;;;;;;;;;5072816;28;19927;-67
2021/05/29 11:51:25;;;;;;;;;;;;;;;;;;5071185;28;19924;-67
2021/05/29 11:53:51;;;;;;;;;;;;;;;;;;5078824;28;19920;-67
2021/05/29 11:56:18;;;;;;;;;;;;;;;;;;5073858;28;19924;-66
2021/05/29 11:58:46;;;;;;;;;;;;;;;;;;5072990;28;20369;-66
2021/05/29 12:01:12;;;;;;;;;;;;;;;;;;5072885;28;19940;-66
2021/05/29 12:03:39;;;;;;;;;;;;;;;;;;5062644;28;19920;-67
2021/05/29 12:06:05;;;;;;;;;;;;;;;;;;5076392;28;19924;-66
2021/05/29 12:08:31;;;;;;;;;;;;;;;;;;5076997;28;19920;-66
2021/05/29 12:10:57;;;;;;;;;;;;;;;;;;5080714;28;19932;-66
2021/05/29 12:13:23;;;;;;;;;;;;;;;;;;5072010;28;19928;-67
2021/05/29 12:15:54;;;;;;;;;;;;;;;;;;5076927;28;19959;-66
2021/05/29 12:18:20;;;;;;;;;;;;;;;;;;5075258;28;20490;-65
2021/05/29 12:20:56;;;;;;;;;;;;;;;;;;5072235;28;19920;-66
2021/05/29 12:23:22;;;;;;;;;;;;;;;;;;5072796;28;19920;-65
2021/05/29 12:25:48;;;;;;;;;;;;;;;;;;5072839;28;20003;-66
2021/05/29 12:28:14;;;;;;;;;;;;;;;;;;5079075;28;19927;-66
2021/05/29 12:30:40;;;;;;;;;;;;;;;;;;5090808;28;19928;-66
2021/05/29 12:33:19;;;;;;;;;;;;;;;;;;5075297;28;19973;-66
2021/05/29 12:35:44;;;;;;;;;;;;;;;;;;5067715;28;19931;-66
2021/05/29 12:38:11;;;;;;;;;;;;;;;;;;5080012;28;19920;-66
2021/05/29 12:40:37;;;;;;;;;;;;;;;;;;5072398;28;20011;-66
2021/05/29 12:43:03;;;;;;;;;;;;;;;;;;5072795;28;19931;-66
2021/05/29 12:45:29;;;;;;;;;;;;;;;;;;5072078;28;19920;-66
2021/05/29 12:47:55;;;;;;;;;;;;;;;;;;5071816;28;19942;-66
2021/05/29 12:50:24;;;;;;;;;;;;;;;;;;5071849;28;20370;-66
2021/05/29 12:52:49;;;;;;;;;;;;;;;;;;5072144;28;19920;-65
2021/05/29 12:55:19;;;;;;;;;;;;;;;;;;5072428;28;19947;-65
2021/05/29 12:57:45;;;;;;;;;;;;;;;;;;5083902;28;19924;-65
2021/05/29 13:00:15;;;;;;;;;;;;;;;;;;5074431;28;19920;-66
2021/05/29 13:07:22;;;;;;;;;;;;;;;;;;5088371;28;20339;-65
2021/05/29 13:08:39;;;;;;;;;;;;;;;;;;5076048;28;20005;-65
2021/05/29 13:11:06;;;;;;;;;;;;;;;;;;5063664;28;19968;-65
2021/05/29 13:13:31;;;;;;;;;;;;;;;;;;5063031;28;19920;-65
2021/05/29 13:16:02;;;;;;;;;;;;;;;;;;5075419;28;19920;-66
2021/05/29 13:18:29;;;;;;;;;;;;;;;;;;5075659;28;19924;-66
2021/05/29 13:21:01;;;;;;;;;;;;;;;;;;5075652;28;19932;-66
2021/05/29 13:23:27;;;;;;;;;;;;;;;;;;5075901;28;19920;-65
2021/05/29 13:25:54;;;;;;;;;;;;;;;;;;5075547;28;19927;-67
2021/05/29 13:28:20;;;;;;;;;;;;;;;;;;5075161;28;20312;-66
2021/05/29 13:30:46;;;;;;;;;;;;;;;;;;5077435;28;19920;-66
2021/05/29 13:33:12;;;;;;;;;;;;;;;;;;5074806;28;19975;-67
2021/05/29 13:35:39;;;;;;;;;;;;;;;;;;5075559;28;20360;-67
2021/05/29 13:38:06;;;;;;;;;;;;;;;;;;5081631;28;19924;-67
2021/05/29 13:40:32;;;;;;;;;;;;;;;;;;5078901;28;19920;-65
2021/05/29 13:42:58;;;;;;;;;;;;;;;;;;5074598;28;19925;-66
2021/05/29 13:45:27;;;;;;;;;;;;;;;;;;5080947;28;19927;-67
2021/05/29 13:47:52;;;;;;;;;;;;;;;;;;5060011;28;19944;-67
2021/05/29 13:50:19;;;;;;;;;;;;;;;;;;5070788;28;19921;-66
2021/05/29 13:52:45;;;;;;;;;;;;;;;;;;5071213;28;19931;-66
2021/05/29 13:55:12;;;;;;;;;;;;;;;;;;5078548;28;19920;-66
2021/05/29 13:57:38;;;;;;;;;;;;;;;;;;5083466;28;19920;-66
2021/05/29 14:00:05;;;;;;;;;;;;;;;;;;5087474;28;19983;-66
2021/05/29 14:02:31;;;;;;;;;;;;;;;;;;5074796;28;19978;-66
2021/05/29 14:04:57;;;;;;;;;;;;;;;;;;5088654;28;19938;-66
2021/05/29 14:07:22;;;;;;;;;;;;;;;;;;5076963;28;19929;-67
2021/05/29 14:09:48;;;;;;;;;;;;;;;;;;5054825;28;19921;-67
2021/05/29 14:12:15;;;;;;;;;;;;;;;;;;5059967;28;20269;-67
2021/05/29 14:14:41;;;;;;;;;;;;;;;;;;5074234;28;19921;-67
2021/05/29 14:17:07;;;;;;;;;;;;;;;;;;5078398;28;20292;-67
2021/05/29 14:19:33;;;;;;;;;;;;;;;;;;5075717;28;20364;-67
2021/05/29 14:21:59;;;;;;;;;;;;;;;;;;5077854;28;19925;-67
2021/05/29 14:24:24;;;;;;;;;;;;;;;;;;5077822;28;19939;-65
2021/05/29 14:26:50;;;;;;;;;;;;;;;;;;5076387;28;19963;-66
2021/05/29 14:29:17;;;;;;;;;;;;;;;;;;5079389;28;19927;-66
2021/05/29 14:31:43;;;;;;;;;;;;;;;;;;5078155;28;19927;-66
2021/05/29 14:34:09;;;;;;;;;;;;;;;;;;5074988;28;20261;-65
2021/05/29 14:36:35;;;;;;;;;;;;;;;;;;5074530;28;19974;-67
2021/05/29 14:39:01;;;;;;;;;;;;;;;;;;5080374;28;19919;-67
2021/05/29 14:41:27;;;;;;;;;;;;;;;;;;5077663;28;19946;-67
2021/05/29 14:43:53;;;;;;;;;;;;;;;;;;5074153;28;20022;-69
2021/05/29 14:46:19;;;;;;;;;;;;;;;;;;5077787;28;19966;-66
2021/05/29 14:48:47;;;;;;;;;;;;;;;;;;5075449;28;19928;-67
2021/05/29 14:51:16;;;;;;;;;;;;;;;;;;5072689;28;19920;-68
2021/05/29 14:53:42;;;;;;;;;;;;;;;;;;5072166;28;19974;-66
2021/05/29 14:56:08;;;;;;;;;;;;;;;;;;5077274;28;19923;-67
2021/05/29 14:58:34;;;;;;;;;;;;;;;;;;5081860;28;20348;-65
2021/05/29 15:01:00;;;;;;;;;;;;;;;;;;5076068;28;19927;-66
2021/05/29 15:03:27;;;;;;;;;;;;;;;;;;5083311;28;20031;-66
2021/05/29 15:05:53;;;;;;;;;;;;;;;;;;5084689;28;20058;-66
2021/05/29 15:08:19;;;;;;;;;;;;;;;;;;5077546;28;20312;-66
2021/05/29 15:10:45;;;;;;;;;;;;;;;;;;5081500;28;19936;-66
2021/05/29 15:13:10;;;;;;;;;;;;;;;;;;5088167;28;19926;-66
2021/05/29 15:15:36;;;;;;;;;;;;;;;;;;5073888;28;19971;-66
2021/05/29 15:18:02;;;;;;;;;;;;;;;;;;5076822;28;20365;-66
2021/05/29 15:20:37;;;;;;;;;;;;;;;;;;5075531;28;19928;-66
2021/05/29 15:23:03;;;;;;;;;;;;;;;;;;5074866;28;19928;-67
2021/05/29 15:25:31;;;;;;;;;;;;;;;;;;5074067;28;19927;-66
2021/05/29 15:27:57;;;;;;;;;;;;;;;;;;5075697;28;19920;-66
2021/05/29 15:30:24;;;;;;;;;;;;;;;;;;5081604;28;20355;-67
2021/05/29 15:32:50;;;;;;;;;;;;;;;;;;5081739;28;19924;-67
2021/05/29 15:35:16;;;;;;;;;;;;;;;;;;5072964;28;19974;-66
2021/05/29 15:37:43;;;;;;;;;;;;;;;;;;5079228;28;19920;-67